Andover, Iowa
Current Conditions -  °F | °C
As of 9:55 AM on Friday 31 Oct 2014 (Local Time) from KSFY Reporting Station
Clear Clear  
Wind Chill: 29°   Ceiling: Unl
Heat Index: 39°   Visibility: 10mi
Dew Point: 20°   Wind: 21mph
Humidity: 47%   Direction: 360°N
Pressure: 30.3"   Gusts: 29mph
Location:  41.98°N, 90.25°W
Report Text: KSFY 311455Z AUTO 36018G25KT 10SM CLR 04/M06 A3030 RMK AO2 T00391065
Loading
Personal Weather Stations






























Interactive Weather Map New forecast layout! Learn more

10-Day Weather Forecast

Advertisements
Track Severe Weather on mobile